Gualeguaychu, Argentina
Current Conditions -  °F | °C
As of 10:00 PM on Friday 28 Nov 2014 (Local Time) from SADF Reporting Station
Clear Clear  
Wind Chill: 23°   Ceiling: Unl
Heat Index: 23°   Visibility: 6mi
Dew Point: 13°   Wind: 8mph
Humidity: 53%   Direction: 20°NNE
Pressure: 29.85"   Gusts: NA
Location:  33.02°S, 58.52°W
Report Text: SADF 290100Z 02007KT CAVOK 23/13 Q1011
Loading
Personal Weather Stations






























Interactive Weather Map New forecast layout! Learn more

10-Day Weather Forecast

Advertisements
Track Severe Weather on mobile